Time;durP1;ratioP1;P1;durP2;ratioP2;P2;SDS_P1;SDS_P2;PMS_P1;PMS_P2;Temp;Humidity;BMP_temperature;BMP_pressure;BME280_temperature;BME280_humidity;BME280_pressure;Samples;Min_cycle;Max_cycle;Signal;HPM_P1;HPM_P2
2023/01/06 15:37:26;;;;;;;1.85;0.98;;;9.80;99.90;;;;;;5109023;27;20353;-63
2023/01/06 15:39:52;;;;;;;3.75;1.10;;;9.80;99.90;;;;;;5110328;28;20020;-65
2023/01/06 15:42:21;;;;;;;2.67;1.40;;;9.80;99.90;;;;;;5109053;28;20424;-63
2023/01/06 15:44:58;;;;;;;2.80;1.05;;;9.80;99.90;;;;;;5110131;28;20468;-66
2023/01/06 15:47:35;;;;;;;2.75;1.30;;;9.90;99.90;;;;;;5109605;28;20468;-65
2023/01/06 15:50:08;;;;;;;2.13;1.42;;;9.90;99.90;;;;;;5112488;28;20020;-64
2023/01/06 15:52:36;;;;;;;4.30;1.38;;;10.00;99.90;;;;;;5106263;28;20073;-67
2023/01/06 15:55:05;;;;;;;1.42;1.17;;;10.00;99.90;;;;;;5096643;28;20380;-63
2023/01/06 15:57:37;;;;;;;3.03;1.40;;;10.00;99.90;;;;;;5100271;28;20048;-66
2023/01/06 16:00:17;;;;;;;3.92;1.73;;;10.00;99.90;;;;;;5107079;28;20186;-66
2023/01/06 16:02:46;;;;;;;5.95;1.70;;;10.00;99.90;;;;;;5109962;28;20050;-64
2023/01/06 16:05:39;;;;;;;4.05;1.60;;;10.00;99.90;;;;;;5107492;28;20019;-64
2023/01/06 16:08:25;;;;;;;4.03;1.50;;;10.00;99.90;;;;;;5108438;28;20062;-63
2023/01/06 16:11:54;;;;;;;4.82;2.17;;;9.90;99.90;;;;;;5087590;28;20027;-65
2023/01/06 16:14:04;;;;;;;6.38;2.38;;;9.90;99.90;;;;;;5088120;28;20024;-62
2023/01/06 16:16:40;;;;;;;4.10;1.98;;;9.90;99.90;;;;;;5092043;28;20040;-64
2023/01/06 16:19:18;;;;;;;4.85;2.15;;;9.90;99.90;;;;;;5086241;28;20039;-63
2023/01/06 16:21:44;;;;;;;3.60;1.88;;;9.90;99.90;;;;;;5105452;28;20020;-65
2023/01/06 16:24:19;;;;;;;4.38;1.80;;;9.90;99.90;;;;;;5106810;28;20028;-63
2023/01/06 16:26:51;;;;;;;4.47;1.92;;;9.80;99.90;;;;;;5108418;28;20095;-64
2023/01/06 16:29:28;;;;;;;6.03;2.30;;;9.90;99.90;;;;;;5108014;28;20403;-64
2023/01/06 16:31:55;;;;;;;5.72;2.67;;;9.80;99.90;;;;;;5107873;28;20030;-67
2023/01/06 16:34:20;;;;;;;5.22;2.40;;;9.80;99.90;;;;;;5108448;28;20535;-64
2023/01/06 16:36:47;;;;;;;7.18;2.63;;;9.80;99.90;;;;;;5109555;28;20134;-68
2023/01/06 16:39:13;;;;;;;7.40;2.90;;;9.70;99.90;;;;;;5107059;28;20099;-62
2023/01/06 16:41:59;;;;;;;6.90;3.75;;;9.70;99.90;;;;;;5108540;28;20095;-63
2023/01/06 16:44:25;;;;;;;6.30;3.40;;;9.70;99.90;;;;;;5107548;28;20024;-63
2023/01/06 16:46:51;;;;;;;5.78;3.30;;;9.70;99.90;;;;;;5104031;28;20074;-65
2023/01/06 16:49:17;;;;;;;6.25;3.10;;;9.70;99.90;;;;;;5096129;28;20028;-64
2023/01/06 16:51:44;;;;;;;6.35;2.83;;;9.80;99.90;;;;;;5096738;28;20380;-65
2023/01/06 16:54:10;;;;;;;9.38;4.47;;;9.80;99.90;;;;;;5113829;28;20030;-63
2023/01/06 16:56:37;;;;;;;7.75;3.88;;;9.90;99.90;;;;;;5114938;28;20074;-62
2023/01/06 16:59:15;;;;;;;9.43;4.03;;;10.00;99.90;;;;;;5114522;28;20102;-63
2023/01/06 17:01:46;;;;;;;7.97;4.22;;;10.00;99.90;;;;;;5113777;28;20028;-65
2023/01/06 17:04:13;;;;;;;6.03;3.58;;;10.10;99.90;;;;;;5112622;28;20028;-65
2023/01/06 17:06:40;;;;;;;5.93;3.50;;;10.00;99.90;;;;;;5105552;28;20016;-63
2023/01/06 17:09:16;;;;;;;7.72;4.35;;;9.90;99.90;;;;;;5100983;28;20057;-64
2023/01/06 17:11:42;;;;;;;6.00;3.50;;;9.90;99.90;;;;;;5093133;28;20400;-63
2023/01/06 17:14:15;;;;;;;8.55;4.35;;;9.80;99.90;;;;;;5092366;28;20596;-64
2023/01/06 17:16:41;;;;;;;6.68;4.10;;;9.70;99.90;;;;;;5102286;28;20062;-62
2023/01/06 17:19:18;;;;;;;9.45;4.63;;;9.70;99.90;;;;;;5109043;28;20032;-64
2023/01/06 17:21:43;;;;;;;7.90;4.93;;;9.60;99.90;;;;;;5113780;28;20023;-62
2023/01/06 17:24:24;;;;;;;7.47;4.47;;;9.60;99.90;;;;;;5113666;28;20030;-63
2023/01/06 17:27:08;;;;;;;10.38;4.72;;;9.60;99.90;;;;;;5112883;28;20219;-67
2023/01/06 17:29:36;;;;;;;9.40;5.32;;;9.60;99.90;;;;;;5098892;28;20019;-62
2023/01/06 17:32:09;;;;;;;10.23;5.90;;;9.70;99.90;;;;;;5076649;28;20031;-64
2023/01/06 17:34:35;;;;;;;9.35;5.75;;;9.70;99.90;;;;;;5102720;28;20503;-63
2023/01/06 17:37:09;;;;;;;9.90;6.05;;;9.70;99.90;;;;;;5099761;28;20105;-64
2023/01/06 17:39:37;;;;;;;10.98;6.45;;;9.70;99.90;;;;;;5100953;28;20027;-65
2023/01/06 17:42:12;;;;;;;10.27;5.88;;;9.60;99.90;;;;;;5112192;28;20031;-64
2023/01/06 17:44:44;;;;;;;9.70;6.28;;;9.60;99.90;;;;;;5095012;28;20434;-63
2023/01/06 17:47:53;;;;;;;10.00;6.63;;;9.70;99.90;;;;;;5103362;28;20412;-64
2023/01/06 17:50:33;;;;;;;12.18;6.20;;;9.70;99.90;;;;;;5093451;28;20044;-63
2023/01/06 17:56:05;;;;;;;11.27;6.88;;;9.80;99.90;;;;;;5093190;28;20055;-62
2023/01/06 17:58:34;;;;;;;11.35;7.15;;;9.80;99.90;;;;;;5094405;28;20746;-62
2023/01/06 18:01:00;;;;;;;12.13;6.65;;;9.90;99.90;;;;;;5094180;28;20107;-62
2023/01/06 18:03:30;;;;;;;10.68;5.90;;;9.90;99.90;;;;;;5094183;28;20357;-62
2023/01/06 18:05:56;;;;;;;12.07;6.82;;;9.90;99.90;;;;;;5094862;28;20016;-63
2023/01/06 18:08:22;;;;;;;13.40;7.97;;;10.00;99.90;;;;;;5092750;28;20406;-61
2023/01/06 18:11:10;;;;;;;9.45;6.38;;;10.10;99.90;;;;;;5091227;28;20089;-63
2023/01/06 18:13:38;;;;;;;9.15;6.25;;;10.10;99.90;;;;;;5089686;28;20481;-60
2023/01/06 18:16:30;;;;;;;9.02;5.30;;;10.20;99.90;;;;;;5092838;28;20047;-61
2023/01/06 18:19:24;;;;;;;11.48;6.50;;;10.20;99.90;;;;;;5091549;28;20058;-61
2023/01/06 18:21:50;;;;;;;10.10;5.97;;;10.20;99.90;;;;;;5068684;28;20118;-61
2023/01/06 18:24:29;;;;;;;8.68;5.25;;;10.30;99.90;;;;;;5090484;28;20024;-61
2023/01/06 18:27:01;;;;;;;10.48;6.22;;;10.30;99.90;;;;;;5092131;28;20056;-62
2023/01/06 18:29:35;;;;;;;11.93;7.60;;;10.30;99.90;;;;;;5091052;28;20051;-62
2023/01/06 18:32:19;;;;;;;11.38;7.00;;;10.30;99.90;;;;;;5099039;28;20016;-62
2023/01/06 18:34:49;;;;;;;11.88;6.82;;;10.30;99.90;;;;;;5095190;28;20179;-60
2023/01/06 21:47:52;;;;;;;11.20;7.18;;;10.30;99.90;;;;;;5109376;27;20343;-64
2023/01/06 21:50:18;;;;;;;14.35;8.60;;;10.30;99.90;;;;;;5118029;28;20024;-65
2023/01/06 21:52:45;;;;;;;13.98;8.57;;;10.40;99.90;;;;;;5104405;28;20021;-65
2023/01/06 21:55:11;;;;;;;16.23;9.77;;;10.50;99.90;;;;;;5113689;28;20030;-64
2023/01/06 21:57:37;;;;;;;16.38;10.32;;;10.50;99.90;;;;;;5108447;28;20020;-63
2023/01/06 22:00:05;;;;;;;17.15;10.32;;;10.60;99.90;;;;;;5109049;28;20066;-63
2023/01/06 22:02:30;;;;;;;17.30;10.27;;;10.70;99.90;;;;;;5106200;28;20016;-62
2023/01/06 22:04:56;;;;;;;14.02;9.45;;;10.80;99.90;;;;;;5107281;28;20030;-62
2023/01/06 22:07:22;;;;;;;15.88;9.52;;;10.90;99.90;;;;;;5108289;28;20036;-64
2023/01/06 22:09:49;;;;;;;17.92;10.70;;;10.90;99.90;;;;;;5115272;27;20346;-61
2023/01/06 22:12:16;;;;;;;17.23;11.27;;;10.90;99.90;;;;;;5120087;28;20027;-64
2023/01/06 22:14:43;;;;;;;21.73;12.45;;;10.90;99.90;;;;;;5107468;28;20020;-62
2023/01/06 22:17:08;;;;;;;17.83;11.93;;;11.00;99.90;;;;;;5114489;28;20035;-64
2023/01/06 22:19:35;;;;;;;18.13;11.52;;;11.00;99.90;;;;;;5111805;28;20097;-63
2023/01/06 22:22:01;;;;;;;17.95;11.70;;;11.00;99.90;;;;;;5107979;28;20392;-62
2023/01/06 22:24:29;;;;;;;18.95;11.93;;;11.10;99.90;;;;;;5106839;28;20024;-63
2023/01/06 22:26:55;;;;;;;15.70;10.43;;;11.10;99.90;;;;;;5118057;28;20031;-63
2023/01/06 22:29:20;;;;;;;17.00;10.75;;;11.10;99.90;;;;;;5117626;28;20024;-64
2023/01/06 22:31:46;;;;;;;20.05;12.90;;;11.20;99.90;;;;;;5105971;28;20030;-66
2023/01/06 22:34:11;;;;;;;20.38;12.35;;;11.20;99.90;;;;;;5118283;28;20122;-66
2023/01/06 22:36:37;;;;;;;17.23;10.90;;;11.20;99.90;;;;;;5112229;28;20053;-67
2023/01/06 22:39:03;;;;;;;17.00;10.60;;;11.20;99.90;;;;;;5116199;27;20028;-65
2023/01/06 22:41:29;;;;;;;17.70;10.73;;;11.20;99.90;;;;;;5124098;28;20027;-65
2023/01/06 22:43:54;;;;;;;16.23;10.15;;;11.30;99.90;;;;;;5128366;28;20034;-64
2023/01/06 22:46:20;;;;;;;16.15;10.10;;;11.30;99.90;;;;;;5121459;27;20048;-64
2023/01/06 22:48:46;;;;;;;19.52;11.45;;;11.30;99.90;;;;;;5106640;28;20107;-64
2023/01/06 22:51:12;;;;;;;17.38;10.20;;;11.20;99.90;;;;;;5108541;28;20028;-64
2023/01/06 22:53:37;;;;;;;16.65;9.77;;;11.30;99.90;;;;;;5106650;28;20481;-64
2023/01/06 22:56:08;;;;;;;18.23;10.95;;;11.30;99.90;;;;;;5107898;28;20067;-64
2023/01/06 22:58:37;;;;;;;17.10;10.63;;;11.30;99.90;;;;;;5096068;28;20518;-64
2023/01/06 23:01:03;;;;;;;15.73;10.45;;;11.30;99.90;;;;;;5092716;28;20403;-65
2023/01/06 23:03:29;;;;;;;18.63;10.70;;;11.30;99.90;;;;;;5093741;28;20035;-65
2023/01/06 23:05:56;;;;;;;18.80;10.82;;;11.30;99.90;;;;;;5091808;28;20469;-63
